createdAt,value
2019-03-27T00:00:16.555Z,11.63
2019-03-27T00:02:39.978Z,12.83
2019-03-27T00:05:03.427Z,11.80
2019-03-27T00:07:26.897Z,11.40
2019-03-27T00:09:50.324Z,10.13
2019-03-27T00:12:14.050Z,10.80
2019-03-27T00:14:37.478Z,11.30
2019-03-27T00:17:01.007Z,11.10
2019-03-27T00:19:24.457Z,10.57
2019-03-27T00:21:47.935Z,10.23
2019-03-27T00:24:11.393Z,10.90
2019-03-27T00:26:34.818Z,10.73
2019-03-27T00:28:58.270Z,11.23
2019-03-27T00:31:21.736Z,10.20
2019-03-27T00:33:45.162Z,10.73
2019-03-27T00:36:08.610Z,9.90
2019-03-27T00:38:32.033Z,8.40
2019-03-27T00:40:55.497Z,8.93
2019-03-27T00:43:18.957Z,9.13
2019-03-27T00:45:42.376Z,8.90
2019-03-27T00:48:06.108Z,8.97
2019-03-27T00:50:29.566Z,9.47
2019-03-27T00:52:53.079Z,9.77
2019-03-27T00:55:16.616Z,9.37
2019-03-27T00:57:40.070Z,9.23
2019-03-27T01:00:05.440Z,9.00
2019-03-27T01:02:28.909Z,9.93
2019-03-27T01:04:52.342Z,9.50
2019-03-27T01:07:15.755Z,9.90
2019-03-27T01:09:39.287Z,10.00
2019-03-27T01:12:02.710Z,9.17
2019-03-27T01:14:26.189Z,9.60
2019-03-27T01:16:49.623Z,9.80
2019-03-27T01:19:13.046Z,9.60
2019-03-27T01:21:36.522Z,10.03
2019-03-27T01:23:59.939Z,8.53
2019-03-27T01:26:23.391Z,9.03
2019-03-27T01:28:46.849Z,9.70
2019-03-27T01:31:10.274Z,9.33
2019-03-27T01:33:33.734Z,9.20
2019-03-27T01:35:57.188Z,9.97
2019-03-27T01:38:20.613Z,9.80
2019-03-27T01:40:44.079Z,10.10
2019-03-27T01:43:07.580Z,10.27
2019-03-27T01:45:31.007Z,10.07
2019-03-27T01:47:54.451Z,9.33
2019-03-27T01:50:17.874Z,10.20
2019-03-27T01:52:41.410Z,10.10
2019-03-27T01:55:06.889Z,10.40
2019-03-27T01:57:30.351Z,10.70
2019-03-27T01:59:53.781Z,10.80
2019-03-27T02:02:17.240Z,9.80
2019-03-27T02:04:40.997Z,9.93
2019-03-27T02:07:04.453Z,9.57
2019-03-27T02:09:27.930Z,9.97
2019-03-27T02:11:51.339Z,8.90
2019-03-27T02:14:14.810Z,10.77
2019-03-27T02:16:38.280Z,11.70
2019-03-27T02:19:01.745Z,10.30
2019-03-27T02:21:25.166Z,9.17
2019-03-27T02:23:48.632Z,10.03
2019-03-27T02:26:12.063Z,10.20
2019-03-27T02:28:35.525Z,8.70
2019-03-27T02:30:58.981Z,10.73
2019-03-27T02:33:22.444Z,9.10
2019-03-27T02:35:46.227Z,9.80
2019-03-27T02:38:09.678Z,10.03
2019-03-27T02:40:33.155Z,9.13
2019-03-27T02:42:56.574Z,8.80
2019-03-27T02:45:20.005Z,10.67
2019-03-27T02:47:43.457Z,8.90
2019-03-27T02:50:07.871Z,9.67
2019-03-27T02:52:31.284Z,10.60
2019-03-27T02:54:54.751Z,9.57
2019-03-27T02:57:18.218Z,12.23
2019-03-27T02:59:41.682Z,9.27
2019-03-27T03:02:05.443Z,10.20
2019-03-27T03:04:28.869Z,10.87
2019-03-27T03:06:52.338Z,10.87
2019-03-27T03:09:15.761Z,10.13
2019-03-27T03:11:39.230Z,10.40
2019-03-27T03:14:03.021Z,10.33
2019-03-27T03:16:41.426Z,12.23
2019-03-27T03:18:51.685Z,11.70
2019-03-27T03:21:15.216Z,12.37
2019-03-27T03:23:38.963Z,12.73
2019-03-27T03:26:02.392Z,12.77
2019-03-27T03:28:25.912Z,12.40
2019-03-27T03:30:49.424Z,12.03
2019-03-27T03:33:12.840Z,11.27
2019-03-27T03:35:36.260Z,12.07
2019-03-27T03:37:59.734Z,10.60
2019-03-27T03:40:23.200Z,11.80
2019-03-27T03:42:46.687Z,11.53
2019-03-27T03:45:10.287Z,10.50
2019-03-27T03:47:33.720Z,9.87
2019-03-27T03:49:57.175Z,9.90
2019-03-27T03:52:22.042Z,9.70
2019-03-27T03:54:45.556Z,10.10
2019-03-27T03:57:09.516Z,11.13
2019-03-27T03:59:33.610Z,9.50
2019-03-27T04:01:57.036Z,9.20
2019-03-27T04:04:23.140Z,10.17
2019-03-27T04:06:46.572Z,9.30
2019-03-27T04:09:10.036Z,10.43
2019-03-27T04:11:33.500Z,10.47
2019-03-27T04:13:56.916Z,10.23
2019-03-27T04:16:20.406Z,10.35
2019-03-27T04:18:43.811Z,9.83
2019-03-27T04:21:07.229Z,9.80
2019-03-27T04:23:30.693Z,10.30
2019-03-27T04:26:09.020Z,10.53
2019-03-27T04:28:19.335Z,10.80
2019-03-27T04:30:42.752Z,11.60
2019-03-27T04:33:06.225Z,10.30
2019-03-27T04:35:29.644Z,9.70
2019-03-27T04:37:53.124Z,9.70
2019-03-27T04:40:16.551Z,9.33
2019-03-27T04:42:40.031Z,9.13
2019-03-27T04:45:03.817Z,10.37
2019-03-27T04:47:32.306Z,9.13
2019-03-27T04:49:52.440Z,9.80
2019-03-27T04:52:15.876Z,9.10
2019-03-27T04:54:39.351Z,10.13
2019-03-27T04:57:02.774Z,9.37
2019-03-27T04:59:26.203Z,8.80
2019-03-27T05:01:49.655Z,10.47
2019-03-27T05:04:13.111Z,10.83
2019-03-27T05:06:36.583Z,17.40
2019-03-27T05:09:00.050Z,16.53
2019-03-27T05:11:23.567Z,14.53
2019-03-27T05:13:46.949Z,11.87
2019-03-27T05:16:10.421Z,12.83
2019-03-27T05:18:33.846Z,13.47
2019-03-27T05:20:57.317Z,12.93
2019-03-27T05:23:20.799Z,11.73
2019-03-27T05:25:44.259Z,10.73
2019-03-27T05:28:07.683Z,10.10
2019-03-27T05:30:31.295Z,10.20
2019-03-27T05:32:54.721Z,10.43
2019-03-27T05:35:18.151Z,11.70
2019-03-27T05:37:41.607Z,12.33
2019-03-27T05:40:07.524Z,13.93
2019-03-27T05:42:30.926Z,14.90
2019-03-27T05:44:54.397Z,13.93
2019-03-27T05:47:17.867Z,13.70
2019-03-27T05:49:41.333Z,13.20
2019-03-27T05:52:04.809Z,10.80
2019-03-27T05:54:28.239Z,10.23
2019-03-27T05:56:51.706Z,10.73
2019-03-27T05:59:15.136Z,10.43
2019-03-27T06:01:38.588Z,11.37
2019-03-27T06:04:02.067Z,11.20
2019-03-27T06:06:25.502Z,13.40
2019-03-27T06:08:48.927Z,12.03
2019-03-27T06:11:12.406Z,13.33
2019-03-27T06:13:35.860Z,11.90
2019-03-27T06:15:59.328Z,14.20
2019-03-27T06:18:22.787Z,14.00
2019-03-27T06:20:46.267Z,13.30
2019-03-27T06:23:09.740Z,14.57
2019-03-27T06:25:33.509Z,14.17
2019-03-27T06:27:56.974Z,14.47
2019-03-27T06:30:20.409Z,15.03
2019-03-27T06:32:43.876Z,15.27
2019-03-27T06:35:08.182Z,14.63
2019-03-27T06:37:31.635Z,15.10
2019-03-27T06:39:55.166Z,14.57
2019-03-27T06:42:18.602Z,15.53
2019-03-27T06:44:42.071Z,14.80
2019-03-27T06:47:05.502Z,15.30
2019-03-27T06:49:28.931Z,15.77
2019-03-27T06:51:52.407Z,15.50
2019-03-27T06:54:15.836Z,16.87
2019-03-27T06:56:39.311Z,24.27
2019-03-27T06:59:02.739Z,32.70
2019-03-27T07:01:26.207Z,32.87
2019-03-27T07:03:49.676Z,22.63
2019-03-27T07:06:13.110Z,24.50
2019-03-27T07:08:36.574Z,23.07
2019-03-27T07:11:00.032Z,23.63
2019-03-27T07:13:23.502Z,22.10
2019-03-27T07:15:46.927Z,21.73
2019-03-27T07:18:10.396Z,20.87
2019-03-27T07:20:33.832Z,19.00
2019-03-27T07:22:57.249Z,16.77
2019-03-27T07:25:20.717Z,17.17
2019-03-27T07:27:44.158Z,17.60
2019-03-27T07:30:08.152Z,17.87
2019-03-27T07:32:31.889Z,17.33
2019-03-27T07:34:55.359Z,16.60
2019-03-27T07:37:19.129Z,16.10
2019-03-27T07:39:42.583Z,16.53
2019-03-27T07:42:06.047Z,14.97
2019-03-27T07:44:29.471Z,16.13
2019-03-27T07:46:52.949Z,15.27
2019-03-27T07:49:16.385Z,14.67
2019-03-27T07:51:40.127Z,14.47
2019-03-27T07:54:03.591Z,13.90
2019-03-27T07:56:27.063Z,13.70
2019-03-27T07:58:50.533Z,13.30
2019-03-27T08:01:13.972Z,15.63
2019-03-27T08:03:37.447Z,13.53
2019-03-27T08:06:00.881Z,12.50
2019-03-27T08:08:24.340Z,12.37
2019-03-27T08:10:47.783Z,12.90
2019-03-27T08:13:11.246Z,12.40
2019-03-27T08:15:34.686Z,13.13
2019-03-27T08:17:58.150Z,12.53
2019-03-27T08:20:21.583Z,12.80
2019-03-27T08:22:45.054Z,13.17
2019-03-27T08:25:09.456Z,13.30
2019-03-27T08:27:32.890Z,12.50
2019-03-27T08:29:56.344Z,12.63
2019-03-27T08:32:19.821Z,12.63
2019-03-27T08:34:43.259Z,11.50
2019-03-27T08:37:06.710Z,12.93
2019-03-27T08:39:30.183Z,12.90
2019-03-27T08:41:53.621Z,12.40
2019-03-27T08:44:17.076Z,11.93
2019-03-27T08:46:40.537Z,11.70
2019-03-27T08:49:03.975Z,12.27
2019-03-27T08:51:27.443Z,12.07
2019-03-27T08:53:50.909Z,11.80
2019-03-27T08:56:14.342Z,12.17
2019-03-27T08:58:37.819Z,11.83
2019-03-27T09:01:01.250Z,12.53
2019-03-27T09:03:24.750Z,12.03
2019-03-27T09:05:48.469Z,11.07
2019-03-27T09:08:11.922Z,10.37
2019-03-27T09:10:35.405Z,11.73
2019-03-27T09:12:58.870Z,13.80
2019-03-27T09:15:22.300Z,13.20
2019-03-27T09:17:45.767Z,12.30
2019-03-27T09:20:09.533Z,11.70
2019-03-27T09:22:33.005Z,11.27
2019-03-27T09:24:56.431Z,10.17
2019-03-27T09:27:19.858Z,10.80
2019-03-27T09:29:43.333Z,8.60
2019-03-27T09:32:06.801Z,8.50
2019-03-27T09:34:30.269Z,8.93
2019-03-27T09:36:53.690Z,8.83
2019-03-27T09:39:17.157Z,8.93
2019-03-27T09:41:40.589Z,8.33
2019-03-27T09:44:04.123Z,7.67
2019-03-27T09:46:27.556Z,7.73
2019-03-27T09:48:51.025Z,7.87
2019-03-27T09:51:14.454Z,7.67
2019-03-27T09:53:37.989Z,6.83
2019-03-27T09:56:01.440Z,7.17
2019-03-27T09:58:24.857Z,7.40
2019-03-27T10:00:52.011Z,6.80
2019-03-27T10:03:15.443Z,6.70
2019-03-27T10:05:38.867Z,7.37
2019-03-27T10:08:02.334Z,6.97
2019-03-27T10:10:25.791Z,7.33
2019-03-27T10:12:49.221Z,6.27
2019-03-27T10:15:12.983Z,6.60
2019-03-27T10:17:36.516Z,6.70
2019-03-27T10:20:03.803Z,6.80
2019-03-27T10:22:25.072Z,6.67
2019-03-27T10:24:48.501Z,7.00
2019-03-27T10:27:11.971Z,8.00
2019-03-27T10:29:35.525Z,6.70
2019-03-27T10:31:58.910Z,6.80
2019-03-27T10:34:22.391Z,6.23
2019-03-27T10:36:45.823Z,4.83
2019-03-27T10:39:09.355Z,5.23
2019-03-27T10:41:32.781Z,4.80
2019-03-27T10:43:56.260Z,3.80
2019-03-27T10:46:19.678Z,2.93
2019-03-27T10:48:52.556Z,3.00
2019-03-27T10:51:08.305Z,2.80
2019-03-27T10:53:31.726Z,2.17
2019-03-27T10:55:55.188Z,2.33
2019-03-27T10:58:18.655Z,3.03
2019-03-27T11:00:42.119Z,3.73
2019-03-27T11:03:05.535Z,3.27
2019-03-27T11:05:29.007Z,2.93
2019-03-27T11:07:52.871Z,2.07
2019-03-27T11:10:16.431Z,2.50
2019-03-27T11:12:39.907Z,2.53
2019-03-27T11:15:04.598Z,2.47
2019-03-27T11:17:28.061Z,3.43
2019-03-27T11:19:51.481Z,3.33
2019-03-27T11:22:14.957Z,3.40
2019-03-27T11:24:38.380Z,2.70
2019-03-27T11:27:01.802Z,3.43
2019-03-27T11:29:26.180Z,4.00
2019-03-27T11:31:49.611Z,3.70
2019-03-27T11:34:13.068Z,3.77
2019-03-27T11:36:36.492Z,3.50
2019-03-27T11:38:59.990Z,3.30
2019-03-27T11:41:23.392Z,3.30
2019-03-27T11:43:54.686Z,3.33
2019-03-27T11:46:12.374Z,3.40
2019-03-27T11:48:35.796Z,3.50
2019-03-27T11:50:59.604Z,3.27
2019-03-27T11:53:23.047Z,4.03
2019-03-27T11:55:46.526Z,3.77
2019-03-27T11:58:09.938Z,3.73
2019-03-27T12:00:33.405Z,2.87
2019-03-27T12:02:56.877Z,2.10
2019-03-27T12:05:20.301Z,2.30
2019-03-27T12:07:43.724Z,2.80
2019-03-27T12:10:07.434Z,3.03
2019-03-27T12:12:30.857Z,3.67
2019-03-27T12:14:54.277Z,2.70
2019-03-27T12:17:17.745Z,3.10
2019-03-27T12:19:41.171Z,2.53
2019-03-27T12:22:04.661Z,2.50
2019-03-27T12:24:28.884Z,2.67
2019-03-27T12:26:52.539Z,2.23
2019-03-27T12:29:18.167Z,2.50
2019-03-27T12:31:41.136Z,1.90
2019-03-27T12:34:04.588Z,2.43
2019-03-27T12:36:28.017Z,2.97
2019-03-27T12:38:51.482Z,2.50
2019-03-27T12:41:14.900Z,2.80
2019-03-27T12:43:38.367Z,2.70
2019-03-27T12:46:01.795Z,2.47
2019-03-27T12:48:25.224Z,3.20
2019-03-27T12:50:48.680Z,2.90
2019-03-27T12:53:12.099Z,2.70
2019-03-27T12:55:35.638Z,2.43
2019-03-27T12:57:59.058Z,2.50
2019-03-27T13:00:22.625Z,2.53
2019-03-27T13:02:46.095Z,3.50
2019-03-27T13:05:09.860Z,2.80
2019-03-27T13:07:33.324Z,3.00
2019-03-27T13:09:56.784Z,3.00
2019-03-27T13:12:20.216Z,3.90
2019-03-27T13:14:43.677Z,3.60
2019-03-27T13:17:07.098Z,2.70
2019-03-27T13:19:30.553Z,3.50
2019-03-27T13:21:53.978Z,3.70
2019-03-27T13:24:17.423Z,2.53
2019-03-27T13:26:40.881Z,3.40
2019-03-27T13:29:04.295Z,3.10
2019-03-27T13:31:27.762Z,3.30
2019-03-27T13:33:51.183Z,3.07
2019-03-27T13:36:14.976Z,3.00
2019-03-27T13:38:38.451Z,2.67
2019-03-27T13:41:02.165Z,5.67
2019-03-27T13:43:25.635Z,3.03
2019-03-27T13:45:49.066Z,3.00
2019-03-27T13:48:12.490Z,2.60
2019-03-27T13:50:36.225Z,2.80
2019-03-27T13:52:59.649Z,3.27
2019-03-27T13:55:23.110Z,3.07
2019-03-27T13:57:46.542Z,3.13
2019-03-27T14:00:14.258Z,3.13
2019-03-27T14:02:38.049Z,3.40
2019-03-27T14:05:01.524Z,3.00
2019-03-27T14:07:24.943Z,2.97
2019-03-27T14:09:48.738Z,3.13
2019-03-27T14:12:12.159Z,3.00
2019-03-27T14:14:49.331Z,3.37
2019-03-27T14:17:00.782Z,2.83
2019-03-27T14:19:24.201Z,3.03
2019-03-27T14:21:54.466Z,2.53
2019-03-27T14:24:12.810Z,2.73
2019-03-27T14:26:44.876Z,2.80
2019-03-27T14:29:01.432Z,2.50
2019-03-27T14:31:24.892Z,2.67
2019-03-27T14:33:48.309Z,2.90
2019-03-27T14:36:11.779Z,2.50
2019-03-27T14:38:35.205Z,2.50
2019-03-27T14:40:58.738Z,2.63
2019-03-27T14:43:22.189Z,2.57
2019-03-27T14:45:45.613Z,2.33
2019-03-27T14:48:09.155Z,2.53
2019-03-27T14:50:32.578Z,2.70
2019-03-27T14:52:56.033Z,3.13
2019-03-27T14:55:19.593Z,3.37
2019-03-27T14:57:43.054Z,2.80
2019-03-27T15:00:09.316Z,2.63
2019-03-27T15:02:33.113Z,3.20
2019-03-27T15:04:56.575Z,2.70
2019-03-27T15:07:20.023Z,2.80
2019-03-27T15:09:43.444Z,2.30
2019-03-27T15:12:06.904Z,2.73
2019-03-27T15:14:30.325Z,3.10
2019-03-27T15:16:53.752Z,2.70
2019-03-27T15:19:17.221Z,2.60
2019-03-27T15:21:40.645Z,2.77
2019-03-27T15:24:04.139Z,2.57
2019-03-27T15:26:27.596Z,2.03
2019-03-27T15:28:51.247Z,2.67
2019-03-27T15:31:20.280Z,2.43
2019-03-27T15:33:39.866Z,2.43
2019-03-27T15:36:03.298Z,2.37
2019-03-27T15:38:26.716Z,2.57
2019-03-27T15:40:50.188Z,2.70
2019-03-27T15:43:13.604Z,2.27
2019-03-27T15:45:37.056Z,2.40
2019-03-27T15:48:00.502Z,2.70
2019-03-27T15:50:23.947Z,2.57
2019-03-27T15:52:47.402Z,2.70
2019-03-27T15:55:11.504Z,3.40
2019-03-27T15:57:34.966Z,3.10
2019-03-27T15:59:58.390Z,3.40
2019-03-27T16:02:21.856Z,3.80
2019-03-27T16:04:45.319Z,3.83
2019-03-27T16:07:08.777Z,4.30
2019-03-27T16:09:32.233Z,4.03
2019-03-27T16:11:55.696Z,3.47
2019-03-27T16:14:19.158Z,4.10
2019-03-27T16:16:56.239Z,4.77
2019-03-27T16:19:07.765Z,4.20
2019-03-27T16:21:31.227Z,4.13
2019-03-27T16:24:05.762Z,4.40
2019-03-27T16:26:19.863Z,3.80
2019-03-27T16:28:43.286Z,3.80
2019-03-27T16:31:06.777Z,4.23
2019-03-27T16:33:30.272Z,4.00
2019-03-27T16:35:53.700Z,4.67
2019-03-27T16:38:17.123Z,4.37
2019-03-27T16:40:44.630Z,4.90
2019-03-27T16:43:08.102Z,5.77
2019-03-27T16:45:31.522Z,5.90
2019-03-27T16:47:54.947Z,4.83
2019-03-27T16:50:18.479Z,4.37
2019-03-27T16:52:41.938Z,4.53
2019-03-27T16:55:07.407Z,4.20
2019-03-27T16:57:30.870Z,4.40
2019-03-27T16:59:54.298Z,4.20
2019-03-27T17:02:17.758Z,4.13
2019-03-27T17:04:41.204Z,4.00
2019-03-27T17:07:05.112Z,4.83
2019-03-27T17:09:28.823Z,6.10
2019-03-27T17:11:52.591Z,5.10
2019-03-27T17:14:16.038Z,4.50
2019-03-27T17:16:39.507Z,4.87
2019-03-27T17:19:02.973Z,4.90
2019-03-27T17:21:26.394Z,5.00
2019-03-27T17:23:49.812Z,5.20
2019-03-27T17:26:13.286Z,5.17
2019-03-27T17:28:36.710Z,5.43
2019-03-27T17:31:00.130Z,4.90
2019-03-27T17:33:23.687Z,5.23
2019-03-27T17:35:47.215Z,5.07
2019-03-27T17:38:11.176Z,4.97
2019-03-27T17:40:34.664Z,4.70
2019-03-27T17:42:58.140Z,5.20
2019-03-27T17:45:21.690Z,5.33
2019-03-27T17:47:51.047Z,5.70
2019-03-27T17:50:15.562Z,6.00
2019-03-27T17:52:38.991Z,4.87
2019-03-27T17:55:02.443Z,5.33
2019-03-27T17:57:25.909Z,5.10
2019-03-27T17:59:49.371Z,5.20
2019-03-27T18:02:12.848Z,5.00
2019-03-27T18:04:36.269Z,5.50
2019-03-27T18:07:00.572Z,5.00
2019-03-27T18:09:24.045Z,6.30
2019-03-27T18:11:47.628Z,5.83
2019-03-27T18:14:11.165Z,6.17
2019-03-27T18:16:34.596Z,7.73
2019-03-27T18:18:58.072Z,8.50
2019-03-27T18:21:21.535Z,8.60
2019-03-27T18:23:46.631Z,8.90
2019-03-27T18:26:10.572Z,6.13
2019-03-27T18:28:33.996Z,6.97
2019-03-27T18:30:57.477Z,6.33
2019-03-27T18:33:20.918Z,6.13
2019-03-27T18:35:44.369Z,6.43
2019-03-27T18:38:07.801Z,5.73
2019-03-27T18:40:31.231Z,5.23
2019-03-27T18:42:54.686Z,5.40
2019-03-27T18:45:18.124Z,5.27
2019-03-27T18:47:41.575Z,5.50
2019-03-27T18:50:07.079Z,6.13
2019-03-27T18:52:30.509Z,5.57
2019-03-27T18:54:53.977Z,5.60
2019-03-27T18:57:17.766Z,5.77
2019-03-27T18:59:41.284Z,5.63
2019-03-27T19:02:04.776Z,6.30
2019-03-27T19:04:28.249Z,6.07
2019-03-27T19:06:51.682Z,7.50
2019-03-27T19:09:15.151Z,7.03
2019-03-27T19:11:38.615Z,8.80
2019-03-27T19:14:02.042Z,10.70
2019-03-27T19:16:25.508Z,10.93
2019-03-27T19:18:49.004Z,9.47
2019-03-27T19:21:12.897Z,10.03
2019-03-27T19:23:36.334Z,8.43
2019-03-27T19:25:59.788Z,8.20
2019-03-27T19:28:23.251Z,9.20
2019-03-27T19:30:46.685Z,7.83
2019-03-27T19:33:10.207Z,7.57
2019-03-27T19:35:33.632Z,5.17
2019-03-27T19:37:57.145Z,5.07
2019-03-27T19:40:20.568Z,5.70
2019-03-27T19:42:43.990Z,6.50
2019-03-27T19:45:07.931Z,6.13
2019-03-27T19:47:31.397Z,6.60
2019-03-27T19:49:54.816Z,6.60
2019-03-27T19:52:18.241Z,6.27
2019-03-27T19:54:41.706Z,5.80
2019-03-27T19:57:05.137Z,6.43
2019-03-27T19:59:28.609Z,6.33
2019-03-27T20:01:52.041Z,7.30
2019-03-27T20:04:15.466Z,6.33
2019-03-27T20:06:39.302Z,7.03
2019-03-27T20:09:02.726Z,6.50
2019-03-27T20:11:26.237Z,7.20
2019-03-27T20:13:49.613Z,6.53
2019-03-27T20:16:13.358Z,6.00
2019-03-27T20:18:37.129Z,6.40
2019-03-27T20:21:00.550Z,6.40
2019-03-27T20:23:24.012Z,7.17
2019-03-27T20:25:47.435Z,7.20
2019-03-27T20:28:10.899Z,7.50
2019-03-27T20:30:34.324Z,6.90
2019-03-27T20:32:57.742Z,7.63
2019-03-27T20:35:22.889Z,8.20
2019-03-27T20:37:46.400Z,8.87
2019-03-27T20:40:11.793Z,7.07
2019-03-27T20:42:35.341Z,7.47
2019-03-27T20:44:58.756Z,6.57
2019-03-27T20:47:22.219Z,8.03
2019-03-27T20:49:45.676Z,7.20
2019-03-27T20:52:09.103Z,6.87
2019-03-27T20:54:32.567Z,6.93
2019-03-27T20:56:55.993Z,7.97
2019-03-27T20:59:19.438Z,7.87
2019-03-27T21:01:42.905Z,12.10
2019-03-27T21:04:06.413Z,8.77
2019-03-27T21:06:29.864Z,8.83
2019-03-27T21:08:53.638Z,6.87
2019-03-27T21:11:17.058Z,7.17
2019-03-27T21:13:41.190Z,6.60
2019-03-27T21:16:04.961Z,5.87
2019-03-27T21:18:28.386Z,6.10
2019-03-27T21:20:51.850Z,6.40
2019-03-27T21:23:15.272Z,6.47
2019-03-27T21:25:38.693Z,6.77
2019-03-27T21:28:02.137Z,6.83
2019-03-27T21:30:25.557Z,6.80
2019-03-27T21:32:49.030Z,7.00
2019-03-27T21:35:13.263Z,7.40
2019-03-27T21:37:36.688Z,7.37
2019-03-27T21:40:00.469Z,6.83
2019-03-27T21:42:23.961Z,7.50
2019-03-27T21:44:47.417Z,6.83
2019-03-27T21:47:10.861Z,7.73
2019-03-27T21:49:34.304Z,7.43
2019-03-27T21:51:57.749Z,7.33
2019-03-27T21:54:21.169Z,7.43
2019-03-27T21:56:44.646Z,7.92
2019-03-27T21:59:08.067Z,9.00
2019-03-27T22:01:31.488Z,9.57
2019-03-27T22:03:54.944Z,7.30
2019-03-27T22:06:18.692Z,7.07
2019-03-27T22:08:42.155Z,7.13
2019-03-27T22:11:05.625Z,8.13
2019-03-27T22:13:29.050Z,8.30
2019-03-27T22:15:52.474Z,7.77
2019-03-27T22:18:15.938Z,8.57
2019-03-27T22:20:39.913Z,8.50
2019-03-27T22:23:03.379Z,8.33
2019-03-27T22:25:35.901Z,8.77
2019-03-27T22:27:51.991Z,8.83
2019-03-27T22:30:15.412Z,9.60
2019-03-27T22:32:38.884Z,9.47
2019-03-27T22:35:02.296Z,9.30
2019-03-27T22:37:25.754Z,9.40
2019-03-27T22:39:49.178Z,10.70
2019-03-27T22:42:12.649Z,9.87
2019-03-27T22:44:36.467Z,10.40
2019-03-27T22:46:59.893Z,11.03
2019-03-27T22:49:23.306Z,8.00
2019-03-27T22:51:46.764Z,8.20
2019-03-27T22:54:10.190Z,8.40
2019-03-27T22:56:33.644Z,8.87
2019-03-27T22:58:57.063Z,9.03
2019-03-27T23:01:20.508Z,8.43
2019-03-27T23:03:43.970Z,8.70
2019-03-27T23:06:07.522Z,9.25
2019-03-27T23:08:30.935Z,8.80
2019-03-27T23:10:54.379Z,8.70
2019-03-27T23:13:17.829Z,8.37
2019-03-27T23:15:41.300Z,8.73
2019-03-27T23:18:05.338Z,9.93
2019-03-27T23:20:28.767Z,10.27
2019-03-27T23:22:52.225Z,10.27
2019-03-27T23:25:15.723Z,10.17
2019-03-27T23:27:39.143Z,9.47
2019-03-27T23:30:02.596Z,8.10
2019-03-27T23:32:26.086Z,8.07
2019-03-27T23:34:49.547Z,8.47
2019-03-27T23:37:12.965Z,7.67
2019-03-27T23:39:36.411Z,8.73
2019-03-27T23:41:59.843Z,11.13
2019-03-27T23:44:23.386Z,12.80
2019-03-27T23:46:46.815Z,12.93
2019-03-27T23:49:10.582Z,13.23
2019-03-27T23:51:34.114Z,13.77
2019-03-27T23:53:57.540Z,14.60
2019-03-27T23:56:20.991Z,14.83
2019-03-27T23:58:44.453Z,13.90
